Time;durP1;ratioP1;P1;durP2;ratioP2;P2;SDS_P1;SDS_P2;PMS_P1;PMS_P2;Temp;Humidity;BMP_temperature;BMP_pressure;BME280_temperature;BME280_humidity;BME280_pressure;Samples;Min_cycle;Max_cycle;Signal;HPM_P1;HPM_P2
2022/03/18 00:00:44;;;;;;;0.60;0.40;;;3.50;72.30;;;;;;5133357;28;20037;-67
2022/03/18 00:03:10;;;;;;;0.43;0.40;;;3.50;72.30;;;;;;5114876;28;20039;-67
2022/03/18 00:05:36;;;;;;;0.52;0.43;;;3.50;72.30;;;;;;5132435;28;20046;-67
2022/03/18 00:08:04;;;;;;;0.65;0.45;;;3.40;72.40;;;;;;5113414;28;20043;-67
2022/03/18 00:10:31;;;;;;;0.88;0.40;;;3.40;72.40;;;;;;5114427;28;20067;-67
2022/03/18 00:12:57;;;;;;;0.38;0.30;;;3.30;72.50;;;;;;5132544;28;20071;-67
2022/03/18 00:15:24;;;;;;;0.68;0.45;;;3.30;72.60;;;;;;5132553;28;20501;-67
2022/03/18 00:17:51;;;;;;;0.40;0.40;;;3.30;72.60;;;;;;5113781;28;20050;-67
2022/03/18 00:20:17;;;;;;;0.73;0.38;;;3.30;72.70;;;;;;5132855;28;20031;-67
2022/03/18 00:22:44;;;;;;;0.20;0.20;;;3.20;72.70;;;;;;5132399;28;20042;-67
2022/03/18 00:25:12;;;;;;;0.40;0.40;;;3.20;72.80;;;;;;5132386;28;20071;-67
2022/03/18 00:27:39;;;;;;;0.68;0.38;;;3.10;72.80;;;;;;5132234;28;20451;-68
2022/03/18 00:30:06;;;;;;;0.98;0.47;;;3.20;72.90;;;;;;5132267;28;20074;-68
2022/03/18 00:32:32;;;;;;;0.52;0.25;;;3.10;72.90;;;;;;5132361;28;20042;-67
2022/03/18 00:34:59;;;;;;;1.00;0.60;;;3.20;73.10;;;;;;5132311;28;20039;-67
2022/03/18 00:37:25;;;;;;;0.85;0.50;;;3.10;73.00;;;;;;5132705;28;20394;-68
2022/03/18 00:39:50;;;;;;;1.05;0.47;;;3.10;73.10;;;;;;5132280;28;20039;-67
2022/03/18 00:42:16;;;;;;;0.45;0.28;;;3.10;73.10;;;;;;5132575;28;20035;-68
2022/03/18 00:44:42;;;;;;;0.45;0.40;;;3.10;73.10;;;;;;5132546;28;20126;-68
2022/03/18 00:52:03;;;;;;;0.17;0.15;;;3.10;73.10;;;;;;5132436;28;20045;-67
2022/03/18 00:52:40;;;;;;;1.35;0.30;;;3.00;73.10;;;;;;5132004;28;20054;-68
2022/03/18 00:55:07;;;;;;;0.63;0.52;;;3.00;73.10;;;;;;5132315;28;20501;-68
2022/03/18 00:57:33;;;;;;;0.85;0.50;;;3.00;73.20;;;;;;5132492;28;20433;-68
2022/03/18 00:59:58;;;;;;;0.47;0.40;;;3.00;73.30;;;;;;5133218;27;20123;-67
2022/03/18 01:02:24;;;;;;;1.10;0.50;;;2.90;73.30;;;;;;5135783;28;20393;-68
2022/03/18 01:04:50;;;;;;;1.40;0.52;;;2.90;73.40;;;;;;5135888;28;20406;-67
2022/03/18 01:07:17;;;;;;;0.77;0.30;;;2.80;73.40;;;;;;5116957;28;20467;-67
2022/03/18 01:09:43;;;;;;;0.65;0.35;;;2.80;73.40;;;;;;5117090;28;20058;-67
2022/03/18 01:12:09;;;;;;;0.47;0.38;;;2.80;73.60;;;;;;5135240;28;20051;-68
2022/03/18 01:14:35;;;;;;;0.30;0.30;;;2.80;73.60;;;;;;5117054;28;20461;-68
2022/03/18 01:17:01;;;;;;;1.38;0.43;;;2.80;73.70;;;;;;5135477;28;20035;-68
2022/03/18 01:19:26;;;;;;;0.32;0.32;;;2.80;73.70;;;;;;5135411;28;20032;-68
2022/03/18 01:21:52;;;;;;;0.70;0.40;;;2.70;73.70;;;;;;5135036;28;20035;-68
2022/03/18 01:24:18;;;;;;;0.52;0.20;;;2.70;73.70;;;;;;5135356;28;20104;-68
2022/03/18 01:26:44;;;;;;;0.22;0.20;;;2.70;73.80;;;;;;5135544;28;20121;-68
2022/03/18 01:29:10;;;;;;;0.30;0.30;;;2.60;73.80;;;;;;5117008;28;20043;-68
2022/03/18 01:31:36;;;;;;;0.20;0.20;;;2.70;73.90;;;;;;5135430;28;20121;-68
2022/03/18 01:34:02;;;;;;;0.75;0.35;;;2.70;73.90;;;;;;5116522;28;20130;-68
2022/03/18 01:36:28;;;;;;;0.63;0.30;;;2.70;73.90;;;;;;5116311;28;20047;-68
2022/03/18 01:38:54;;;;;;;0.50;0.32;;;2.60;73.90;;;;;;5135340;28;20035;-68
2022/03/18 01:41:20;;;;;;;0.57;0.30;;;2.60;73.90;;;;;;5098115;28;20071;-68
2022/03/18 01:43:47;;;;;;;0.20;0.20;;;2.60;74.00;;;;;;5135058;28;20485;-67
2022/03/18 01:46:14;;;;;;;0.63;0.32;;;2.50;74.10;;;;;;5117205;28;20086;-68
2022/03/18 01:48:41;;;;;;;0.22;0.20;;;2.60;74.20;;;;;;5117269;28;20043;-68
2022/03/18 01:51:08;;;;;;;0.20;0.20;;;2.60;74.20;;;;;;5134813;28;20192;-67
2022/03/18 01:53:35;;;;;;;0.43;0.30;;;2.50;74.20;;;;;;5134891;28;20071;-68
2022/03/18 01:56:01;;;;;;;0.68;0.47;;;2.60;74.30;;;;;;5134692;28;20131;-68
2022/03/18 01:58:27;;;;;;;0.30;0.30;;;2.60;74.30;;;;;;5135311;28;20039;-68
2022/03/18 02:00:54;;;;;;;0.70;0.38;;;2.50;74.20;;;;;;5134940;28;20139;-68
2022/03/18 02:03:21;;;;;;;0.73;0.47;;;2.50;74.30;;;;;;5116306;28;20042;-68
2022/03/18 02:05:48;;;;;;;0.70;0.30;;;2.60;74.30;;;;;;5134383;28;20035;-68
2022/03/18 02:08:17;;;;;;;0.38;0.38;;;2.50;74.30;;;;;;5134394;28;20501;-68
2022/03/18 02:10:44;;;;;;;0.63;0.40;;;2.50;74.30;;;;;;5134789;27;20038;-68
2022/03/18 02:13:10;;;;;;;0.30;0.30;;;2.40;74.30;;;;;;5114542;28;20402;-68
2022/03/18 02:15:35;;;;;;;0.57;0.40;;;2.40;74.40;;;;;;5114272;28;20045;-68
2022/03/18 02:18:01;;;;;;;0.40;0.30;;;2.50;74.60;;;;;;5134152;28;20122;-68
2022/03/18 02:20:27;;;;;;;0.20;0.20;;;2.40;74.50;;;;;;5134331;28;20032;-68
2022/03/18 02:22:53;;;;;;;0.30;0.20;;;2.50;74.60;;;;;;5134121;28;20035;-68
2022/03/18 02:25:19;;;;;;;0.20;0.20;;;2.30;74.60;;;;;;5134406;28;20058;-68
2022/03/18 02:28:01;;;;;;;0.30;0.30;;;2.40;74.70;;;;;;5134404;28;20043;-68
2022/03/18 02:30:28;;;;;;;0.65;0.32;;;2.30;74.70;;;;;;5134143;28;20066;-68
2022/03/18 02:32:55;;;;;;;0.30;0.25;;;2.30;74.70;;;;;;5133953;28;20043;-68
2022/03/18 02:35:21;;;;;;;0.17;0.17;;;2.30;74.80;;;;;;5134130;28;20489;-67
2022/03/18 02:37:47;;;;;;;0.50;0.30;;;2.30;74.80;;;;;;5133835;28;20039;-68
2022/03/18 02:40:15;;;;;;;0.15;0.15;;;2.30;74.90;;;;;;5134060;28;20043;-68
2022/03/18 02:42:41;;;;;;;0.35;0.22;;;2.20;74.90;;;;;;5134409;28;20046;-68
2022/03/18 02:45:08;;;;;;;0.35;0.30;;;2.20;74.90;;;;;;5134283;28;20086;-68
2022/03/18 02:47:34;;;;;;;0.30;0.30;;;2.30;75.00;;;;;;5134313;28;20125;-68
2022/03/18 02:50:00;;;;;;;0.65;0.30;;;2.20;75.00;;;;;;5115368;28;20442;-68
2022/03/18 02:52:26;;;;;;;0.30;0.30;;;2.20;75.00;;;;;;5133844;28;20137;-68
2022/03/18 02:54:52;;;;;;;0.63;0.30;;;2.20;75.00;;;;;;5134356;28;20031;-68
2022/03/18 02:57:18;;;;;;;0.38;0.20;;;2.20;75.00;;;;;;5133568;28;20039;-68
2022/03/18 02:59:44;;;;;;;0.32;0.30;;;2.20;75.00;;;;;;5115714;28;20118;-68
2022/03/18 03:02:12;;;;;;;0.60;0.30;;;2.20;75.10;;;;;;5098927;28;20039;-67
2022/03/18 03:07:58;;;;;;;0.63;0.40;;;2.10;75.10;;;;;;5133648;28;20031;-67
2022/03/18 03:10:07;;;;;;;0.50;0.30;;;2.10;75.20;;;;;;5133121;28;20050;-68
2022/03/18 03:12:33;;;;;;;0.60;0.60;;;2.10;75.30;;;;;;5133289;28;20043;-68
2022/03/18 03:14:59;;;;;;;0.30;0.30;;;2.10;75.20;;;;;;5133365;28;20068;-68
2022/03/18 03:17:24;;;;;;;0.25;0.20;;;2.10;75.30;;;;;;5133460;28;20066;-68
2022/03/18 03:19:50;;;;;;;0.47;0.30;;;2.10;75.40;;;;;;5133486;28;20070;-68
2022/03/18 03:22:16;;;;;;;0.65;0.20;;;2.10;75.50;;;;;;5133241;27;20131;-68
2022/03/18 03:24:41;;;;;;;0.32;0.20;;;2.00;75.40;;;;;;5132942;28;20039;-67
2022/03/18 03:27:07;;;;;;;0.32;0.30;;;2.20;75.60;;;;;;5133256;28;20046;-67
2022/03/18 03:29:33;;;;;;;0.30;0.30;;;2.00;75.50;;;;;;5133191;28;20045;-67
2022/03/18 03:31:59;;;;;;;0.68;0.25;;;2.00;75.50;;;;;;5133043;28;20083;-68
2022/03/18 03:34:24;;;;;;;0.30;0.30;;;2.10;75.60;;;;;;5133215;28;20043;-68
2022/03/18 03:36:50;;;;;;;0.32;0.32;;;2.00;75.70;;;;;;5133318;28;20031;-68
2022/03/18 03:39:16;;;;;;;0.22;0.22;;;2.00;75.70;;;;;;5133099;28;20039;-68
2022/03/18 03:41:41;;;;;;;0.20;0.20;;;1.90;75.70;;;;;;5133064;28;20066;-68
2022/03/18 03:44:07;;;;;;;0.38;0.28;;;1.90;75.80;;;;;;5133553;28;20118;-68
2022/03/18 03:46:33;;;;;;;1.02;0.30;;;1.90;75.80;;;;;;5133614;28;20434;-68
2022/03/18 03:49:00;;;;;;;0.22;0.22;;;2.00;75.90;;;;;;5112289;28;20451;-68
2022/03/18 03:51:25;;;;;;;0.40;0.38;;;1.90;75.80;;;;;;5133305;28;20086;-68
2022/03/18 03:53:51;;;;;;;0.35;0.30;;;2.00;76.00;;;;;;5132824;28;20031;-68
2022/03/18 03:56:17;;;;;;;0.55;0.25;;;1.90;76.00;;;;;;5132715;28;20043;-68
2022/03/18 03:58:43;;;;;;;0.52;0.17;;;2.00;76.10;;;;;;5132732;28;20042;-68
2022/03/18 04:01:09;;;;;;;0.68;0.30;;;1.90;76.00;;;;;;5132886;28;20039;-68
2022/03/18 04:03:34;;;;;;;0.30;0.30;;;1.80;75.90;;;;;;5132922;28;20383;-68
2022/03/18 04:06:01;;;;;;;0.22;0.17;;;1.90;76.10;;;;;;5114454;28;20478;-68
2022/03/18 04:08:27;;;;;;;0.65;0.20;;;1.80;76.00;;;;;;5132980;28;20050;-68
2022/03/18 04:10:54;;;;;;;0.40;0.30;;;1.80;76.00;;;;;;5132802;28;20040;-68
2022/03/18 04:13:20;;;;;;;0.73;0.30;;;1.80;76.10;;;;;;5132640;28;20047;-68
2022/03/18 04:15:48;;;;;;;0.55;0.40;;;1.80;76.20;;;;;;5114213;28;20039;-68
2022/03/18 04:18:14;;;;;;;0.28;0.28;;;1.80;76.20;;;;;;5114445;28;20043;-68
2022/03/18 04:20:39;;;;;;;0.70;0.40;;;1.80;76.30;;;;;;5132501;28;20039;-68
2022/03/18 04:23:05;;;;;;;0.20;0.20;;;1.80;76.30;;;;;;5132994;28;20039;-68
2022/03/18 04:25:31;;;;;;;0.47;0.30;;;1.70;76.30;;;;;;5132508;28;20035;-68
2022/03/18 04:27:58;;;;;;;0.50;0.30;;;1.70;76.30;;;;;;5114281;28;20042;-68
2022/03/18 04:30:23;;;;;;;0.38;0.30;;;1.70;76.30;;;;;;5113918;28;20401;-68
2022/03/18 04:32:49;;;;;;;0.85;0.20;;;1.70;76.40;;;;;;5132210;28;20054;-67
2022/03/18 04:35:15;;;;;;;0.63;0.30;;;1.70;76.40;;;;;;5133932;27;20493;-67
2022/03/18 04:37:42;;;;;;;0.20;0.20;;;1.70;76.40;;;;;;5136282;28;20413;-68
2022/03/18 04:40:11;;;;;;;0.28;0.17;;;1.60;76.40;;;;;;5135912;28;20035;-68
2022/03/18 04:42:37;;;;;;;0.40;0.30;;;1.70;76.50;;;;;;5136154;28;20050;-67
2022/03/18 04:45:04;;;;;;;0.20;0.20;;;1.70;76.50;;;;;;5135800;28;20039;-68
2022/03/18 04:47:33;;;;;;;0.30;0.30;;;1.60;76.50;;;;;;5116465;28;20465;-68
2022/03/18 04:50:00;;;;;;;0.50;0.20;;;1.70;76.60;;;;;;5136298;28;20039;-67
2022/03/18 04:52:26;;;;;;;0.30;0.20;;;1.60;76.50;;;;;;5136476;28;22319;-67
2022/03/18 04:54:52;;;;;;;0.20;0.10;;;1.60;76.60;;;;;;5135676;28;20035;-67
2022/03/18 04:57:19;;;;;;;0.70;0.38;;;1.60;76.70;;;;;;5136259;28;20047;-68
2022/03/18 04:59:46;;;;;;;0.38;0.30;;;1.70;76.70;;;;;;5135704;28;20043;-67
2022/03/18 05:02:14;;;;;;;0.52;0.30;;;1.50;76.70;;;;;;5100479;28;20485;-67
2022/03/18 05:04:41;;;;;;;0.13;0.10;;;1.60;76.80;;;;;;5136313;28;20118;-68
2022/03/18 05:07:07;;;;;;;0.17;0.17;;;1.60;76.80;;;;;;5136169;28;20039;-68
2022/03/18 05:09:33;;;;;;;0.30;0.20;;;1.60;76.80;;;;;;5117263;28;20433;-68
2022/03/18 05:11:59;;;;;;;0.35;0.20;;;1.50;76.70;;;;;;5136307;28;20035;-68
2022/03/18 05:14:25;;;;;;;0.52;0.40;;;1.50;76.80;;;;;;5135491;28;20126;-68
2022/03/18 05:16:52;;;;;;;0.30;0.30;;;1.50;76.90;;;;;;5136157;28;20514;-68
2022/03/18 05:19:18;;;;;;;0.38;0.22;;;1.50;76.80;;;;;;5135666;28;20070;-67
2022/03/18 05:21:44;;;;;;;0.13;0.10;;;1.50;76.80;;;;;;5135644;28;20036;-67
2022/03/18 05:24:10;;;;;;;0.57;0.40;;;1.50;76.90;;;;;;5135569;28;20091;-67
2022/03/18 05:26:37;;;;;;;0.15;0.15;;;1.50;76.90;;;;;;5135765;28;20046;-68
2022/03/18 05:29:03;;;;;;;0.70;0.30;;;1.50;77.00;;;;;;5117132;28;20046;-67
2022/03/18 05:31:31;;;;;;;0.30;0.30;;;1.50;77.10;;;;;;5135887;28;20031;-69
2022/03/18 05:33:57;;;;;;;0.32;0.20;;;1.40;77.00;;;;;;5135581;28;20054;-70
2022/03/18 05:36:23;;;;;;;0.28;0.28;;;1.50;77.10;;;;;;5135526;28;20386;-69
2022/03/18 05:38:48;;;;;;;0.20;0.20;;;1.40;77.00;;;;;;5135876;28;20073;-67
2022/03/18 05:41:15;;;;;;;0.25;0.20;;;1.50;77.10;;;;;;5115342;28;20043;-69
2022/03/18 05:43:41;;;;;;;0.32;0.28;;;1.50;77.10;;;;;;5135417;28;20035;-68
2022/03/18 05:46:07;;;;;;;0.45;0.20;;;1.40;77.10;;;;;;5135458;27;20382;-69
2022/03/18 05:48:33;;;;;;;0.65;0.20;;;1.40;77.10;;;;;;5135131;28;20039;-69
2022/03/18 05:51:00;;;;;;;0.30;0.10;;;1.50;77.20;;;;;;5117143;28;20043;-69
2022/03/18 05:53:28;;;;;;;0.20;0.20;;;1.50;77.10;;;;;;5135522;28;20039;-69
2022/03/18 05:58:31;;;;;;;0.20;0.20;;;1.50;77.20;;;;;;5134894;28;20050;-69
2022/03/18 06:00:57;;;;;;;0.40;0.25;;;1.50;77.10;;;;;;5135276;28;20039;-69
2022/03/18 06:03:24;;;;;;;0.30;0.20;;;1.50;77.10;;;;;;5135013;28;20079;-69
2022/03/18 06:05:50;;;;;;;0.52;0.30;;;1.50;77.00;;;;;;5115598;28;20044;-69
2022/03/18 06:13:32;;;;;;;0.35;0.22;;;1.60;77.10;;;;;;5134625;28;20055;-69
2022/03/18 06:15:59;;;;;;;0.38;0.38;;;1.60;77.00;;;;;;5134968;28;20118;-69
2022/03/18 06:18:25;;;;;;;0.30;0.20;;;1.70;77.00;;;;;;5134508;28;20550;-69
2022/03/18 06:20:52;;;;;;;0.38;0.38;;;1.70;77.00;;;;;;5134761;28;20117;-69
2022/03/18 06:23:18;;;;;;;0.80;0.50;;;1.70;77.00;;;;;;5134740;28;20131;-67
2022/03/18 06:25:44;;;;;;;1.35;0.30;;;1.70;77.00;;;;;;5134607;28;20042;-69
2022/03/18 06:28:10;;;;;;;0.47;0.30;;;1.80;77.00;;;;;;5134535;28;20039;-69
2022/03/18 06:30:35;;;;;;;0.52;0.40;;;1.90;77.00;;;;;;5134906;28;20388;-69
2022/03/18 06:33:01;;;;;;;0.20;0.20;;;1.90;76.90;;;;;;5134222;28;20047;-69
2022/03/18 06:35:27;;;;;;;0.20;0.20;;;1.90;76.90;;;;;;5134439;28;20523;-68
2022/03/18 06:37:54;;;;;;;0.55;0.20;;;2.00;76.80;;;;;;5134635;28;20039;-69
2022/03/18 06:40:20;;;;;;;0.40;0.30;;;2.00;76.70;;;;;;5134183;28;20039;-69
2022/03/18 06:42:46;;;;;;;0.28;0.10;;;2.10;76.70;;;;;;5134122;28;20087;-69
2022/03/18 06:45:11;;;;;;;0.82;0.38;;;2.10;76.60;;;;;;5134159;28;20118;-69
2022/03/18 06:47:37;;;;;;;0.35;0.35;;;2.20;76.70;;;;;;5134070;28;20122;-69
2022/03/18 06:50:03;;;;;;;0.15;0.15;;;2.20;76.60;;;;;;5134143;28;20402;-69
2022/03/18 06:52:29;;;;;;;0.35;0.30;;;2.40;76.60;;;;;;5134018;28;20130;-69
2022/03/18 06:54:55;;;;;;;0.90;0.60;;;2.40;76.50;;;;;;5134372;28;20126;-69
2022/03/18 06:57:21;;;;;;;0.17;0.17;;;2.50;76.40;;;;;;5133795;27;20497;-67
2022/03/18 06:59:47;;;;;;;0.43;0.30;;;2.60;76.40;;;;;;5134363;28;20039;-69
2022/03/18 07:02:15;;;;;;;0.25;0.20;;;2.70;76.30;;;;;;5134224;28;20036;-69
2022/03/18 07:04:41;;;;;;;1.65;0.40;;;2.80;76.30;;;;;;5114080;28;20039;-69
2022/03/18 07:07:06;;;;;;;0.28;0.20;;;2.90;76.20;;;;;;5134157;28;20039;-69
2022/03/18 07:09:32;;;;;;;0.30;0.20;;;3.00;76.10;;;;;;5133715;28;20031;-69
2022/03/18 07:11:58;;;;;;;0.43;0.30;;;3.00;76.10;;;;;;5133346;28;20138;-69
2022/03/18 07:14:24;;;;;;;0.65;0.30;;;3.10;76.10;;;;;;5133517;28;20035;-69
2022/03/18 07:19:32;;;;;;;0.40;0.30;;;3.30;76.00;;;;;;5133196;28;20130;-70
2022/03/18 07:21:58;;;;;;;0.17;0.17;;;3.40;75.80;;;;;;5080129;28;20028;-70
2022/03/18 07:24:23;;;;;;;0.28;0.28;;;3.50;75.70;;;;;;5115046;28;20461;-69
2022/03/18 07:26:49;;;;;;;0.75;0.43;;;3.70;75.70;;;;;;5114813;28;20490;-70
2022/03/18 07:29:15;;;;;;;2.33;0.60;;;3.80;75.60;;;;;;5133569;28;20062;-69
2022/03/18 07:31:41;;;;;;;0.63;0.40;;;3.90;75.50;;;;;;5133581;28;20043;-70
2022/03/18 07:34:06;;;;;;;0.52;0.40;;;4.00;75.40;;;;;;5133919;28;20086;-70
2022/03/18 07:36:32;;;;;;;0.30;0.30;;;4.10;75.30;;;;;;5133284;28;20035;-70
2022/03/18 07:38:58;;;;;;;0.57;0.50;;;4.30;75.20;;;;;;5113908;28;20055;-70
2022/03/18 07:41:24;;;;;;;1.90;0.50;;;4.40;75.10;;;;;;5115587;28;20050;-70
2022/03/18 07:43:50;;;;;;;0.40;0.40;;;4.40;75.00;;;;;;5114507;28;20466;-70
2022/03/18 07:46:17;;;;;;;0.98;0.45;;;4.60;74.90;;;;;;5133601;28;20046;-70
2022/03/18 07:48:44;;;;;;;1.23;0.50;;;4.80;74.90;;;;;;5133279;28;20119;-68
2022/03/18 07:51:11;;;;;;;1.08;0.50;;;4.90;74.70;;;;;;5133565;28;20127;-70
2022/03/18 07:53:37;;;;;;;0.40;0.40;;;5.10;74.60;;;;;;5133571;28;20046;-69
2022/03/18 07:56:04;;;;;;;1.60;0.60;;;5.20;74.50;;;;;;5133402;28;20043;-69
2022/03/18 07:58:30;;;;;;;0.50;0.40;;;5.40;74.40;;;;;;5114493;28;20516;-69
2022/03/18 08:00:56;;;;;;;0.38;0.35;;;5.50;74.30;;;;;;5097609;28;20066;-69
2022/03/18 08:03:22;;;;;;;0.65;0.40;;;5.60;74.20;;;;;;5114514;28;20055;-70
2022/03/18 08:05:48;;;;;;;0.88;0.50;;;5.80;74.10;;;;;;5132957;28;20035;-69
2022/03/18 08:08:14;;;;;;;1.05;0.52;;;6.00;74.10;;;;;;5062365;28;20394;-71
2022/03/18 08:10:40;;;;;;;0.45;0.40;;;6.10;74.00;;;;;;5136222;27;20070;-71
2022/03/18 08:13:06;;;;;;;0.40;0.40;;;6.30;73.90;;;;;;5099972;28;20097;-70
2022/03/18 08:15:33;;;;;;;0.57;0.40;;;6.50;73.80;;;;;;5136682;28;20111;-70
2022/03/18 08:17:59;;;;;;;1.10;0.38;;;6.60;73.70;;;;;;5115969;28;20092;-70
2022/03/18 08:20:26;;;;;;;0.65;0.38;;;6.70;73.60;;;;;;5118853;28;20077;-70
2022/03/18 08:22:52;;;;;;;0.50;0.30;;;6.90;73.50;;;;;;5118200;28;20043;-69
2022/03/18 08:25:19;;;;;;;0.40;0.30;;;7.10;73.50;;;;;;5136438;28;20043;-70
2022/03/18 08:27:48;;;;;;;0.45;0.43;;;7.20;73.50;;;;;;5136779;28;20039;-70
2022/03/18 08:30:14;;;;;;;0.38;0.30;;;7.30;73.40;;;;;;5136310;28;20100;-70
2022/03/18 08:32:40;;;;;;;1.25;0.40;;;7.50;73.30;;;;;;5136311;28;20529;-70
2022/03/18 08:35:08;;;;;;;0.25;0.20;;;7.60;73.20;;;;;;5136318;28;20122;-70
2022/03/18 08:40:14;;;;;;;0.30;0.30;;;8.00;73.20;;;;;;5136115;28;20042;-69
2022/03/18 08:42:40;;;;;;;0.35;0.20;;;8.10;73.10;;;;;;5136047;28;20039;-69
2022/03/18 08:45:08;;;;;;;0.55;0.28;;;8.20;73.00;;;;;;5136160;28;20126;-70
2022/03/18 08:47:34;;;;;;;1.42;0.57;;;8.40;73.00;;;;;;5117956;28;20047;-69
2022/03/18 08:49:59;;;;;;;0.63;0.38;;;8.50;72.90;;;;;;5135924;28;20032;-69
2022/03/18 08:52:25;;;;;;;0.73;0.30;;;8.60;72.70;;;;;;5135910;28;20050;-69
2022/03/18 08:54:51;;;;;;;0.80;0.30;;;8.70;72.60;;;;;;5100881;28;20064;-69
2022/03/18 08:57:17;;;;;;;0.20;0.20;;;8.90;72.60;;;;;;5136328;28;20453;-71
2022/03/18 08:59:42;;;;;;;0.90;0.50;;;9.00;72.40;;;;;;5135656;28;20051;-71
2022/03/18 09:02:09;;;;;;;0.52;0.28;;;9.10;72.40;;;;;;5135779;28;20130;-69
2022/03/18 09:04:35;;;;;;;0.50;0.30;;;9.20;72.20;;;;;;5135775;28;20050;-71
2022/03/18 09:07:01;;;;;;;0.60;0.40;;;9.40;72.20;;;;;;5136222;28;20047;-70
2022/03/18 09:09:26;;;;;;;0.30;0.25;;;9.50;72.00;;;;;;5135176;28;20122;-71
2022/03/18 09:11:53;;;;;;;0.40;0.40;;;9.60;71.90;;;;;;5135710;28;20039;-71
2022/03/18 09:14:18;;;;;;;0.65;0.40;;;9.70;71.80;;;;;;5135624;28;20042;-71
2022/03/18 09:16:47;;;;;;;0.40;0.30;;;9.70;71.60;;;;;;5135629;28;20035;-71
2022/03/18 09:19:13;;;;;;;0.28;0.28;;;9.90;71.50;;;;;;5135361;28;20039;-71
2022/03/18 09:21:39;;;;;;;0.43;0.32;;;10.00;71.40;;;;;;5135222;27;20038;-71
2022/03/18 09:24:05;;;;;;;1.90;0.32;;;10.10;71.30;;;;;;5135633;28;20051;-71
2022/03/18 09:26:31;;;;;;;0.60;0.28;;;10.20;71.20;;;;;;5135367;28;20054;-71
2022/03/18 09:28:57;;;;;;;0.22;0.22;;;10.30;71.00;;;;;;5135399;28;20043;-70
2022/03/18 09:31:23;;;;;;;0.52;0.30;;;10.40;70.80;;;;;;5135630;28;20063;-70
2022/03/18 09:33:49;;;;;;;0.35;0.20;;;10.50;70.60;;;;;;5116452;28;20076;-70
2022/03/18 09:36:18;;;;;;;0.30;0.30;;;10.60;70.60;;;;;;5116096;28;20036;-70
2022/03/18 09:38:45;;;;;;;0.80;0.30;;;10.60;70.40;;;;;;5134953;28;20118;-70
2022/03/18 09:41:11;;;;;;;0.45;0.35;;;10.70;70.20;;;;;;5135302;28;20031;-69
2022/03/18 09:43:38;;;;;;;1.83;0.40;;;10.80;70.00;;;;;;5116875;28;20477;-70
2022/03/18 09:46:07;;;;;;;1.02;0.47;;;10.90;69.90;;;;;;5116678;28;20035;-70
2022/03/18 09:48:33;;;;;;;0.40;0.40;;;10.90;69.80;;;;;;5135351;28;20092;-70
2022/03/18 09:50:59;;;;;;;0.20;0.20;;;11.00;69.60;;;;;;5081364;28;20039;-70
2022/03/18 09:53:25;;;;;;;0.38;0.30;;;11.10;69.50;;;;;;5134730;28;20132;-69
2022/03/18 09:55:52;;;;;;;0.38;0.38;;;11.10;69.30;;;;;;5116957;28;20059;-70
2022/03/18 09:58:21;;;;;;;0.28;0.28;;;11.30;69.30;;;;;;5117047;28;20385;-70
2022/03/18 10:00:47;;;;;;;0.30;0.30;;;11.30;69.10;;;;;;5134974;28;20027;-69
2022/03/18 10:03:16;;;;;;;0.40;0.40;;;11.30;69.00;;;;;;5135047;28;20039;-70
2022/03/18 10:05:46;;;;;;;1.80;0.40;;;11.30;68.90;;;;;;5134862;28;20100;-70
2022/03/18 10:08:13;;;;;;;0.90;0.35;;;11.40;68.80;;;;;;5134826;28;20039;-69
2022/03/18 10:10:47;;;;;;;0.82;0.30;;;11.50;68.70;;;;;;5134548;28;20039;-69
2022/03/18 10:13:15;;;;;;;0.28;0.28;;;11.50;68.50;;;;;;5135179;28;20035;-69
2022/03/18 10:15:41;;;;;;;0.55;0.40;;;11.60;68.40;;;;;;5135126;28;20085;-70
2022/03/18 10:18:11;;;;;;;0.68;0.38;;;11.70;68.40;;;;;;5116661;28;20035;-70
2022/03/18 10:20:40;;;;;;;0.55;0.32;;;11.70;68.20;;;;;;5134568;28;20047;-70
2022/03/18 10:23:19;;;;;;;0.28;0.28;;;11.70;68.10;;;;;;5115870;28;20099;-70
2022/03/18 10:25:51;;;;;;;1.45;0.47;;;11.80;67.90;;;;;;5116478;28;20046;-69
2022/03/18 10:28:36;;;;;;;0.47;0.32;;;11.90;67.80;;;;;;5116001;28;20084;-69
2022/03/18 10:31:11;;;;;;;0.73;0.38;;;11.90;67.60;;;;;;5100310;28;20092;-67
2022/03/18 10:37:04;;;;;;;0.70;0.50;;;12.00;67.50;;;;;;5133005;27;20098;-69
2022/03/18 10:39:23;;;;;;;;;;;12.20;67.20;;;;;;5134649;28;20039;-69
2022/03/18 10:41:49;;;;;;;1.17;0.50;;;12.20;67.10;;;;;;5134189;28;19918;-68
2022/03/18 10:44:17;;;;;;;0.82;0.30;;;12.30;66.90;;;;;;5115987;28;20047;-68
2022/03/18 10:46:43;;;;;;;0.30;0.30;;;12.30;66.80;;;;;;5133849;28;20054;-69
2022/03/18 10:49:10;;;;;;;0.75;0.30;;;12.40;66.70;;;;;;5115606;28;20047;-69
2022/03/18 10:51:37;;;;;;;0.50;0.40;;;12.50;66.60;;;;;;5134049;28;20047;-68
2022/03/18 10:54:04;;;;;;;0.30;0.30;;;12.60;66.50;;;;;;5134098;28;20126;-69
2022/03/18 10:56:52;;;;;;;0.60;0.40;;;12.70;66.20;;;;;;5134741;28;20093;-69
2022/03/18 10:59:17;;;;;;;1.33;0.30;;;12.80;66.10;;;;;;5134227;28;20023;-69
2022/03/18 11:01:46;;;;;;;0.35;0.35;;;12.90;65.90;;;;;;5134606;28;20355;-69
2022/03/18 11:04:15;;;;;;;1.20;0.50;;;13.00;65.70;;;;;;5134585;28;20474;-69
2022/03/18 11:06:42;;;;;;;1.92;0.60;;;13.10;65.50;;;;;;5133976;28;20055;-69
2022/03/18 11:09:11;;;;;;;0.40;0.40;;;13.20;65.40;;;;;;5134193;28;20454;-69
2022/03/18 11:11:39;;;;;;;0.85;0.60;;;13.30;65.30;;;;;;5134292;28;20039;-70
2022/03/18 11:14:10;;;;;;;1.10;0.40;;;13.40;65.10;;;;;;5098423;28;20071;-70
2022/03/18 11:16:39;;;;;;;1.65;0.68;;;13.50;65.00;;;;;;5133847;28;20046;-70
2022/03/18 11:19:09;;;;;;;0.90;0.60;;;13.50;65.00;;;;;;5133952;28;20085;-70
2022/03/18 11:21:38;;;;;;;0.35;0.35;;;13.60;65.10;;;;;;5133613;28;20031;-70
2022/03/18 11:24:06;;;;;;;0.77;0.32;;;13.60;65.10;;;;;;5133869;28;20074;-70
2022/03/18 11:26:34;;;;;;;0.40;0.40;;;13.70;64.70;;;;;;5133409;28;20555;-70
2022/03/18 11:29:09;;;;;;;1.17;0.70;;;13.80;64.60;;;;;;5132867;28;20046;-70
2022/03/18 11:31:36;;;;;;;2.30;0.80;;;13.90;64.50;;;;;;5133515;28;20409;-70
2022/03/18 11:34:15;;;;;;;0.77;0.45;;;14.00;64.50;;;;;;5133113;28;20126;-71
2022/03/18 11:36:46;;;;;;;0.45;0.30;;;14.00;64.20;;;;;;5132606;28;20030;-70
2022/03/18 11:39:19;;;;;;;0.90;0.50;;;14.10;64.20;;;;;;5133120;28;20042;-70
2022/03/18 11:41:49;;;;;;;2.15;0.60;;;14.20;64.00;;;;;;5132668;28;20356;-70
2022/03/18 11:44:52;;;;;;;1.42;0.70;;;14.30;64.60;;;;;;5132395;27;20050;-69
2022/03/18 11:47:38;;;;;;;2.05;0.77;;;14.30;63.90;;;;;;5133461;28;20038;-69
2022/03/18 11:50:33;;;;;;;0.70;0.60;;;14.40;63.90;;;;;;5133703;28;20089;-69
2022/03/18 11:52:59;;;;;;;1.15;0.60;;;14.50;63.70;;;;;;5133033;28;20032;-69
2022/03/18 11:55:25;;;;;;;0.60;0.60;;;14.50;63.60;;;;;;5114536;28;20107;-70
2022/03/18 11:57:51;;;;;;;1.05;0.70;;;14.60;63.50;;;;;;5133048;28;20430;-69
2022/03/18 12:00:42;;;;;;;1.15;0.80;;;14.60;63.20;;;;;;5132971;28;20035;-69
2022/03/18 12:03:09;;;;;;;1.63;0.80;;;14.60;63.20;;;;;;5132998;28;20045;-69
2022/03/18 12:05:53;;;;;;;0.95;0.55;;;14.60;63.40;;;;;;5132700;28;20412;-69
2022/03/18 12:08:18;;;;;;;1.08;0.60;;;14.70;63.30;;;;;;5114681;28;20116;-70
2022/03/18 12:10:44;;;;;;;0.70;0.50;;;14.80;63.20;;;;;;5132673;28;20489;-70
2022/03/18 12:13:10;;;;;;;1.45;0.70;;;14.90;63.10;;;;;;5132969;28;20061;-70
2022/03/18 12:15:39;;;;;;;0.68;0.50;;;14.90;62.80;;;;;;5114236;28;20040;-70
2022/03/18 12:18:06;;;;;;;1.65;0.63;;;15.00;62.80;;;;;;5133024;28;20122;-70
2022/03/18 12:20:34;;;;;;;1.15;0.70;;;15.20;62.80;;;;;;5132400;28;20512;-70
2022/03/18 12:23:05;;;;;;;1.15;0.60;;;15.30;62.50;;;;;;5132517;28;20034;-70
2022/03/18 12:25:31;;;;;;;0.60;0.50;;;15.20;62.40;;;;;;5132578;28;20139;-70
2022/03/18 12:27:58;;;;;;;0.55;0.55;;;15.30;62.60;;;;;;5132998;28;20047;-67
2022/03/18 12:30:26;;;;;;;1.63;0.60;;;15.30;62.50;;;;;;5133206;28;20035;-70
2022/03/18 12:32:56;;;;;;;0.77;0.57;;;15.30;62.60;;;;;;5113893;28;20043;-69
2022/03/18 12:35:28;;;;;;;1.55;0.80;;;15.40;62.50;;;;;;5114114;28;20126;-70
2022/03/18 12:38:13;;;;;;;1.27;0.70;;;15.60;62.40;;;;;;5132429;28;20135;-70
2022/03/18 12:40:42;;;;;;;1.25;0.80;;;15.70;62.00;;;;;;5132582;28;20074;-70
2022/03/18 12:43:08;;;;;;;1.23;0.82;;;15.70;61.80;;;;;;5080355;28;20389;-70
2022/03/18 12:45:39;;;;;;;2.80;0.77;;;15.70;61.90;;;;;;5132324;28;20104;-70
2022/03/18 12:48:07;;;;;;;;;;;15.80;61.80;;;;;;5132717;28;20474;-71
2022/03/18 12:50:35;;;;;;;0.40;0.40;;;15.80;61.80;;;;;;5132193;28;19911;-69
2022/03/18 12:53:09;;;;;;;1.10;0.80;;;15.80;61.90;;;;;;5132279;28;20035;-68
2022/03/18 12:55:34;;;;;;;2.20;0.70;;;15.80;61.70;;;;;;5133059;27;20043;-68
2022/03/18 12:58:01;;;;;;;1.50;0.70;;;15.80;61.90;;;;;;5136175;28;20375;-69
2022/03/18 13:00:28;;;;;;;1.33;0.73;;;15.80;61.80;;;;;;5117591;28;20042;-68
2022/03/18 13:02:54;;;;;;;2.00;0.60;;;15.90;61.70;;;;;;5136132;28;20103;-68
2022/03/18 13:05:25;;;;;;;0.88;0.70;;;16.00;61.50;;;;;;5135983;28;20478;-69
2022/03/18 13:07:58;;;;;;;1.05;0.60;;;16.00;61.40;;;;;;5118416;28;20065;-68
2022/03/18 13:10:24;;;;;;;0.70;0.65;;;16.20;61.40;;;;;;5135583;28;20043;-68
2022/03/18 13:12:49;;;;;;;0.47;0.47;;;16.30;61.40;;;;;;5135692;28;20129;-70
2022/03/18 13:15:18;;;;;;;1.50;0.60;;;16.20;61.10;;;;;;5136124;28;20462;-68
2022/03/18 13:17:45;;;;;;;0.45;0.45;;;16.20;61.10;;;;;;5117185;28;20533;-69